sensor_id;sensor_type;location;lat;lon;timestamp;pressure;altitude;pressure_sealevel;temperature;humidity
62524;BME280;53689;56.878;60.672;2024-03-29T00:02:15;96737.34;;;16.09;29.94
62524;BME280;53689;56.878;60.672;2024-03-29T00:04:42;96736.13;;;16.12;29.99
62524;BME280;53689;56.878;60.672;2024-03-29T00:07:08;96746.97;;;16.03;30.14
62524;BME280;53689;56.878;60.672;2024-03-29T00:09:35;96743.91;;;16.06;30.83
62524;BME280;53689;56.878;60.672;2024-03-29T00:12:02;96752.94;;;16.05;30.35
62524;BME280;53689;56.878;60.672;2024-03-29T00:14:28;96748.81;;;16.03;30.54
62524;BME280;53689;56.878;60.672;2024-03-29T00:16:55;96758.88;;;16.01;29.97
62524;BME280;53689;56.878;60.672;2024-03-29T00:19:23;96764.84;;;16.03;30.05
62524;BME280;53689;56.878;60.672;2024-03-29T00:21:50;96761.16;;;16.04;30.10
62524;BME280;53689;56.878;60.672;2024-03-29T00:24:16;96757.47;;;16.05;30.49
62524;BME280;53689;56.878;60.672;2024-03-29T00:26:43;96760.34;;;16.10;30.73
62524;BME280;53689;56.878;60.672;2024-03-29T00:29:09;96760.94;;;15.99;29.79
62524;BME280;53689;56.878;60.672;2024-03-29T00:31:36;96765.25;;;16.00;30.53
62524;BME280;53689;56.878;60.672;2024-03-29T00:34:02;96766.88;;;16.01;30.67
62524;BME280;53689;56.878;60.672;2024-03-29T00:36:30;96760.31;;;15.97;30.24
62524;BME280;53689;56.878;60.672;2024-03-29T00:38:57;96770.41;;;16.01;29.78
62524;BME280;53689;56.878;60.672;2024-03-29T00:41:23;96767.72;;;16.01;30.30
62524;BME280;53689;56.878;60.672;2024-03-29T00:43:50;96770.59;;;16.00;30.00
62524;BME280;53689;56.878;60.672;2024-03-29T00:46:16;96754.81;;;16.05;30.28
62524;BME280;53689;56.878;60.672;2024-03-29T00:48:43;96769.13;;;15.97;30.24
62524;BME280;53689;56.878;60.672;2024-03-29T00:51:10;96774.28;;;15.99;29.91
62524;BME280;53689;56.878;60.672;2024-03-29T00:53:38;96768.31;;;15.97;30.68
62524;BME280;53689;56.878;60.672;2024-03-29T00:56:05;96778.19;;;16.03;29.73
62524;BME280;53689;56.878;60.672;2024-03-29T00:58:32;96779.00;;;15.97;30.12
62524;BME280;53689;56.878;60.672;2024-03-29T01:00:58;96780.63;;;15.98;29.68
62524;BME280;53689;56.878;60.672;2024-03-29T01:03:25;96792.19;;;16.05;29.52
62524;BME280;53689;56.878;60.672;2024-03-29T01:05:51;96790.91;;;16.01;30.22
62524;BME280;53689;56.878;60.672;2024-03-29T01:08:18;96793.38;;;15.95;30.41
62524;BME280;53689;56.878;60.672;2024-03-29T01:10:46;96806.47;;;15.90;30.01
62524;BME280;53689;56.878;60.672;2024-03-29T01:13:13;96800.03;;;15.85;30.44
62524;BME280;53689;56.878;60.672;2024-03-29T01:15:39;96809.75;;;15.92;30.38
62524;BME280;53689;56.878;60.672;2024-03-29T01:18:06;96814.72;;;15.95;30.25
62524;BME280;53689;56.878;60.672;2024-03-29T01:20:32;96817.16;;;15.97;29.51
62524;BME280;53689;56.878;60.672;2024-03-29T01:22:58;96814.91;;;15.94;29.89
62524;BME280;53689;56.878;60.672;2024-03-29T01:25:25;96822.31;;;15.99;30.23
62524;BME280;53689;56.878;60.672;2024-03-29T01:27:53;96820.25;;;15.94;30.39
62524;BME280;53689;56.878;60.672;2024-03-29T01:30:19;96830.75;;;15.95;30.11
62524;BME280;53689;56.878;60.672;2024-03-29T01:32:46;96828.69;;;15.98;30.42
62524;BME280;53689;56.878;60.672;2024-03-29T01:35:13;96821.50;;;15.98;30.36
62524;BME280;53689;56.878;60.672;2024-03-29T01:37:40;96829.66;;;15.90;30.15
62524;BME280;53689;56.878;60.672;2024-03-29T01:40:07;96835.06;;;15.97;30.23
62524;BME280;53689;56.878;60.672;2024-03-29T01:42:34;96830.47;;;15.90;30.06
62524;BME280;53689;56.878;60.672;2024-03-29T01:45:02;96837.72;;;15.97;29.31
62524;BME280;53689;56.878;60.672;2024-03-29T01:47:29;96842.63;;;15.93;29.74
62524;BME280;53689;56.878;60.672;2024-03-29T01:49:56;96841.00;;;15.99;29.91
62524;BME280;53689;56.878;60.672;2024-03-29T01:52:24;96839.34;;;15.91;29.47
62524;BME280;53689;56.878;60.672;2024-03-29T01:54:51;96850.84;;;15.98;29.87
62524;BME280;53689;56.878;60.672;2024-03-29T01:57:18;96849.22;;;15.97;29.11
62524;BME280;53689;56.878;60.672;2024-03-29T01:59:46;96860.28;;;15.94;29.04
62524;BME280;53689;56.878;60.672;2024-03-29T02:02:14;96863.34;;;15.91;29.19
62524;BME280;53689;56.878;60.672;2024-03-29T02:04:41;96867.16;;;15.81;29.08
62524;BME280;53689;56.878;60.672;2024-03-29T02:07:09;96860.34;;;16.07;28.97
62524;BME280;53689;56.878;60.672;2024-03-29T02:09:35;96877.53;;;15.98;28.76
62524;BME280;53689;56.878;60.672;2024-03-29T02:12:02;96865.19;;;15.90;29.38
62524;BME280;53689;56.878;60.672;2024-03-29T02:14:28;96865.38;;;15.89;28.81
62524;BME280;53689;56.878;60.672;2024-03-29T02:16:55;96881.38;;;15.89;29.01
62524;BME280;53689;56.878;60.672;2024-03-29T02:19:23;96881.25;;;15.97;29.68
62524;BME280;53689;56.878;60.672;2024-03-29T02:21:53;96885.50;;;15.91;29.48
62524;BME280;53689;56.878;60.672;2024-03-29T02:24:23;96884.06;;;15.89;28.90
62524;BME280;53689;56.878;60.672;2024-03-29T02:26:50;96880.72;;;15.87;29.43
62524;BME280;53689;56.878;60.672;2024-03-29T02:29:17;96879.41;;;15.98;28.46
62524;BME280;53689;56.878;60.672;2024-03-29T02:31:44;96893.34;;;15.93;28.40
62524;BME280;53689;56.878;60.672;2024-03-29T02:34:11;96904.56;;;15.88;28.41
62524;BME280;53689;56.878;60.672;2024-03-29T02:36:37;96893.53;;;15.91;29.02
62524;BME280;53689;56.878;60.672;2024-03-29T02:39:04;96908.88;;;15.89;28.79
62524;BME280;53689;56.878;60.672;2024-03-29T02:41:32;96914.06;;;15.91;29.06
62524;BME280;53689;56.878;60.672;2024-03-29T02:43:59;96905.84;;;15.92;28.37
62524;BME280;53689;56.878;60.672;2024-03-29T02:46:26;96904.75;;;15.87;28.44
62524;BME280;53689;56.878;60.672;2024-03-29T02:48:53;96908.72;;;15.91;28.40
62524;BME280;53689;56.878;60.672;2024-03-29T02:51:19;96912.41;;;15.90;28.60
62524;BME280;53689;56.878;60.672;2024-03-29T02:53:46;96921.25;;;15.90;28.76
62524;BME280;53689;56.878;60.672;2024-03-29T02:56:12;96921.75;;;16.07;27.95
62524;BME280;53689;56.878;60.672;2024-03-29T02:58:41;96916.38;;;16.01;28.55
62524;BME280;53689;56.878;60.672;2024-03-29T03:01:08;96924.59;;;15.99;28.05
62524;BME280;53689;56.878;60.672;2024-03-29T03:03:36;96923.94;;;15.97;28.57
62524;BME280;53689;56.878;60.672;2024-03-29T03:06:03;96916.38;;;16.01;28.45
62524;BME280;53689;56.878;60.672;2024-03-29T03:08:30;96926.84;;;15.95;28.49
62524;BME280;53689;56.878;60.672;2024-03-29T03:10:57;96924.59;;;15.99;28.66
62524;BME280;53689;56.878;60.672;2024-03-29T03:13:23;96927.84;;;15.94;28.44
62524;BME280;53689;56.878;60.672;2024-03-29T03:15:51;96923.91;;;15.90;28.10
62524;BME280;53689;56.878;60.672;2024-03-29T03:18:18;96923.84;;;15.84;27.82
62524;BME280;53689;56.878;60.672;2024-03-29T03:20:50;96933.38;;;15.93;28.21
62524;BME280;53689;56.878;60.672;2024-03-29T03:23:17;96929.25;;;15.90;28.52
62524;BME280;53689;56.878;60.672;2024-03-29T03:25:44;96927.03;;;15.94;28.20
62524;BME280;53689;56.878;60.672;2024-03-29T03:28:10;96934.69;;;16.04;28.19
62524;BME280;53689;56.878;60.672;2024-03-29T03:30:39;96935.31;;;16.06;27.31
62524;BME280;53689;56.878;60.672;2024-03-29T03:33:07;96936.72;;;16.02;27.69
62524;BME280;53689;56.878;60.672;2024-03-29T03:35:34;96936.97;;;16.07;27.71
62524;BME280;53689;56.878;60.672;2024-03-29T03:38:00;96937.19;;;16.12;27.80
62524;BME280;53689;56.878;60.672;2024-03-29T03:40:27;96932.22;;;16.02;27.61
62524;BME280;53689;56.878;60.672;2024-03-29T03:42:54;96943.03;;;15.94;27.91
62524;BME280;53689;56.878;60.672;2024-03-29T03:45:21;96947.56;;;15.93;27.58
62524;BME280;53689;56.878;60.672;2024-03-29T03:47:48;96943.34;;;16.06;27.58
62524;BME280;53689;56.878;60.672;2024-03-29T03:50:16;96945.53;;;15.95;27.65
62524;BME280;53689;56.878;60.672;2024-03-29T03:52:42;96948.56;;;15.92;28.38
62524;BME280;53689;56.878;60.672;2024-03-29T03:55:09;96944.06;;;15.93;27.44
62524;BME280;53689;56.878;60.672;2024-03-29T03:57:36;96944.91;;;15.93;27.17
62524;BME280;53689;56.878;60.672;2024-03-29T04:00:03;96942.75;;;16.11;27.23
62524;BME280;53689;56.878;60.672;2024-03-29T04:02:38;96949.63;;;15.98;28.17
62524;BME280;53689;56.878;60.672;2024-03-29T04:05:06;96957.63;;;15.98;27.70
62524;BME280;53689;56.878;60.672;2024-03-29T04:07:34;96952.25;;;15.91;27.42
62524;BME280;53689;56.878;60.672;2024-03-29T04:10:00;96958.59;;;15.90;27.51
62524;BME280;53689;56.878;60.672;2024-03-29T04:12:27;96967.06;;;15.94;27.61
62524;BME280;53689;56.878;60.672;2024-03-29T04:14:54;96963.19;;;15.97;28.05
62524;BME280;53689;56.878;60.672;2024-03-29T04:17:22;96954.91;;;15.91;27.27
62524;BME280;53689;56.878;60.672;2024-03-29T04:19:49;96962.13;;;15.91;27.27
62524;BME280;53689;56.878;60.672;2024-03-29T04:22:16;96965.22;;;15.94;27.34
62524;BME280;53689;56.878;60.672;2024-03-29T04:24:44;96971.38;;;15.95;27.80
62524;BME280;53689;56.878;60.672;2024-03-29T04:27:11;96967.78;;;15.88;27.37
62524;BME280;53689;56.878;60.672;2024-03-29T04:29:38;96965.03;;;15.96;28.14
62524;BME280;53689;56.878;60.672;2024-03-29T04:32:05;96971.59;;;15.93;27.78
62524;BME280;53689;56.878;60.672;2024-03-29T04:34:31;96975.47;;;15.91;27.43
62524;BME280;53689;56.878;60.672;2024-03-29T04:36:58;96978.28;;;15.89;27.88
62524;BME280;53689;56.878;60.672;2024-03-29T04:39:24;96982.66;;;15.75;27.59
62524;BME280;53689;56.878;60.672;2024-03-29T04:41:53;96988.81;;;15.91;28.08
62524;BME280;53689;56.878;60.672;2024-03-29T04:44:24;96991.53;;;16.26;27.68
62524;BME280;53689;56.878;60.672;2024-03-29T04:46:51;96996.06;;;15.82;27.97
62524;BME280;53689;56.878;60.672;2024-03-29T04:49:19;96997.47;;;15.78;27.58
62524;BME280;53689;56.878;60.672;2024-03-29T04:51:46;97000.03;;;15.86;27.37
62524;BME280;53689;56.878;60.672;2024-03-29T04:54:12;96998.00;;;15.88;27.14
62524;BME280;53689;56.878;60.672;2024-03-29T04:56:39;97002.69;;;15.86;27.24
62524;BME280;53689;56.878;60.672;2024-03-29T04:59:07;97004.34;;;15.87;28.18
62524;BME280;53689;56.878;60.672;2024-03-29T05:01:33;97004.63;;;15.92;27.97
62524;BME280;53689;56.878;60.672;2024-03-29T05:04:00;97002.88;;;15.85;27.88
62524;BME280;53689;56.878;60.672;2024-03-29T05:06:27;97009.25;;;15.84;27.42
62524;BME280;53689;56.878;60.672;2024-03-29T05:08:54;97007.88;;;15.73;27.06
62524;BME280;53689;56.878;60.672;2024-03-29T05:11:20;97008.78;;;15.80;27.08
62524;BME280;53689;56.878;60.672;2024-03-29T05:13:47;96997.94;;;15.81;27.43
62524;BME280;53689;56.878;60.672;2024-03-29T05:16:15;96996.16;;;15.89;27.21
62524;BME280;53689;56.878;60.672;2024-03-29T05:18:41;96995.88;;;15.84;27.34
62524;BME280;53689;56.878;60.672;2024-03-29T05:21:08;97006.25;;;15.72;27.11
62524;BME280;53689;56.878;60.672;2024-03-29T05:23:35;97011.22;;;15.75;27.05
62524;BME280;53689;56.878;60.672;2024-03-29T05:26:01;97013.66;;;16.13;27.61
62524;BME280;53689;56.878;60.672;2024-03-29T05:28:28;97001.59;;;15.95;27.84
62524;BME280;53689;56.878;60.672;2024-03-29T05:30:54;97007.19;;;15.86;27.59
62524;BME280;53689;56.878;60.672;2024-03-29T05:33:23;97014.13;;;15.58;27.34
62524;BME280;53689;56.878;60.672;2024-03-29T05:35:49;97018.38;;;14.17;25.37
62524;BME280;53689;56.878;60.672;2024-03-29T05:38:16;97005.94;;;13.71;25.65
62524;BME280;53689;56.878;60.672;2024-03-29T05:40:43;97016.41;;;14.49;24.92
62524;BME280;53689;56.878;60.672;2024-03-29T05:43:09;97021.56;;;15.11;25.59
62524;BME280;53689;56.878;60.672;2024-03-29T05:45:36;97025.25;;;16.05;27.15
62524;BME280;53689;56.878;60.672;2024-03-29T05:48:03;97020.53;;;16.29;26.08
62524;BME280;53689;56.878;60.672;2024-03-29T05:50:31;97028.53;;;15.42;25.04
62524;BME280;53689;56.878;60.672;2024-03-29T05:52:57;97031.31;;;15.56;25.71
62524;BME280;53689;56.878;60.672;2024-03-29T05:55:24;97026.72;;;15.49;26.24
62524;BME280;53689;56.878;60.672;2024-03-29T05:57:50;97017.41;;;15.60;27.22
62524;BME280;53689;56.878;60.672;2024-03-29T06:00:17;97021.56;;;15.85;26.71
62524;BME280;53689;56.878;60.672;2024-03-29T06:02:44;97039.84;;;14.69;27.25
62524;BME280;53689;56.878;60.672;2024-03-29T06:05:11;97020.72;;;14.50;25.31
62524;BME280;53689;56.878;60.672;2024-03-29T06:07:39;97021.50;;;14.74;25.58
62524;BME280;53689;56.878;60.672;2024-03-29T06:10:06;97032.69;;;15.15;24.83
62524;BME280;53689;56.878;60.672;2024-03-29T06:12:33;97033.47;;;15.08;25.92
62524;BME280;53689;56.878;60.672;2024-03-29T06:15:00;97036.09;;;14.93;26.02
62524;BME280;53689;56.878;60.672;2024-03-29T06:17:26;97035.66;;;15.20;25.83
62524;BME280;53689;56.878;60.672;2024-03-29T06:19:55;97040.50;;;15.31;25.59
62524;BME280;53689;56.878;60.672;2024-03-29T06:22:21;97032.19;;;15.41;26.83
62524;BME280;53689;56.878;60.672;2024-03-29T06:24:50;97038.41;;;15.48;27.23
62524;BME280;53689;56.878;60.672;2024-03-29T06:27:16;97041.47;;;15.45;26.86
62524;BME280;53689;56.878;60.672;2024-03-29T06:29:43;97038.25;;;15.50;27.94
62524;BME280;53689;56.878;60.672;2024-03-29T06:32:10;97049.41;;;15.38;27.97
62524;BME280;53689;56.878;60.672;2024-03-29T06:34:36;97056.47;;;15.46;27.87
62524;BME280;53689;56.878;60.672;2024-03-29T06:37:03;97040.75;;;15.36;28.55
62524;BME280;53689;56.878;60.672;2024-03-29T06:39:30;97045.97;;;15.45;28.23
62524;BME280;53689;56.878;60.672;2024-03-29T06:41:58;97039.25;;;15.49;28.40
62524;BME280;53689;56.878;60.672;2024-03-29T06:44:25;97050.69;;;15.79;27.44
62524;BME280;53689;56.878;60.672;2024-03-29T06:46:52;97063.53;;;15.54;27.96
62524;BME280;53689;56.878;60.672;2024-03-29T06:49:18;97059.44;;;13.99;27.85
62524;BME280;53689;56.878;60.672;2024-03-29T06:51:45;97056.16;;;14.36;27.31
62524;BME280;53689;56.878;60.672;2024-03-29T06:54:12;97063.66;;;14.70;26.59
62524;BME280;53689;56.878;60.672;2024-03-29T06:56:39;97070.75;;;14.93;27.62
62524;BME280;53689;56.878;60.672;2024-03-29T06:59:07;97066.59;;;15.36;26.63
62524;BME280;53689;56.878;60.672;2024-03-29T07:01:34;97073.44;;;15.60;27.06
62524;BME280;53689;56.878;60.672;2024-03-29T07:04:00;97063.47;;;15.69;27.02
62524;BME280;53689;56.878;60.672;2024-03-29T07:06:27;97059.38;;;15.66;26.77
62524;BME280;53689;56.878;60.672;2024-03-29T07:08:54;97061.31;;;15.94;26.42
62524;BME280;53689;56.878;60.672;2024-03-29T07:11:21;97058.09;;;15.99;26.05
62524;BME280;53689;56.878;60.672;2024-03-29T07:13:47;97068.50;;;15.94;27.02
62524;BME280;53689;56.878;60.672;2024-03-29T07:16:15;97069.06;;;16.11;27.77
62524;BME280;53689;56.878;60.672;2024-03-29T07:18:42;97073.78;;;16.09;26.51
62524;BME280;53689;56.878;60.672;2024-03-29T07:21:10;97080.69;;;16.25;26.81
62524;BME280;53689;56.878;60.672;2024-03-29T07:23:37;97077.66;;;16.28;26.44
62524;BME280;53689;56.878;60.672;2024-03-29T07:26:04;97080.56;;;16.33;26.51
62524;BME280;53689;56.878;60.672;2024-03-29T07:28:31;97077.19;;;16.46;26.21
62524;BME280;53689;56.878;60.672;2024-03-29T07:31:05;97076.09;;;16.41;27.91
62524;BME280;53689;56.878;60.672;2024-03-29T07:33:33;97059.84;;;16.14;27.31
62524;BME280;53689;56.878;60.672;2024-03-29T07:35:59;97067.09;;;15.98;27.57
62524;BME280;53689;56.878;60.672;2024-03-29T07:38:26;97073.84;;;15.94;26.78
62524;BME280;53689;56.878;60.672;2024-03-29T07:40:53;97063.44;;;15.99;26.90
62524;BME280;53689;56.878;60.672;2024-03-29T07:43:19;97081.25;;;16.20;26.61
62524;BME280;53689;56.878;60.672;2024-03-29T07:45:46;97080.50;;;16.27;26.30
62524;BME280;53689;56.878;60.672;2024-03-29T07:48:13;97084.75;;;16.43;27.34
62524;BME280;53689;56.878;60.672;2024-03-29T07:50:42;97087.38;;;16.36;27.23
62524;BME280;53689;56.878;60.672;2024-03-29T07:53:09;97093.09;;;16.33;26.65
62524;BME280;53689;56.878;60.672;2024-03-29T07:55:38;97078.16;;;16.39;27.55
62524;BME280;53689;56.878;60.672;2024-03-29T07:58:05;97082.34;;;16.26;27.70
62524;BME280;53689;56.878;60.672;2024-03-29T08:00:32;97071.97;;;16.38;26.50
62524;BME280;53689;56.878;60.672;2024-03-29T08:02:59;97074.28;;;16.19;26.61
62524;BME280;53689;56.878;60.672;2024-03-29T08:05:25;97091.88;;;16.35;26.43
62524;BME280;53689;56.878;60.672;2024-03-29T08:07:54;97075.78;;;16.29;27.17
62524;BME280;53689;56.878;60.672;2024-03-29T08:10:20;97087.63;;;16.41;26.67
62524;BME280;53689;56.878;60.672;2024-03-29T08:12:47;97079.31;;;16.58;26.72
62524;BME280;53689;56.878;60.672;2024-03-29T08:15:14;97089.66;;;16.96;27.32
62524;BME280;53689;56.878;60.672;2024-03-29T08:17:40;97082.00;;;16.58;27.07
62524;BME280;53689;56.878;60.672;2024-03-29T08:20:08;97089.16;;;16.50;26.43
62524;BME280;53689;56.878;60.672;2024-03-29T08:22:34;97088.53;;;16.27;26.94
62524;BME280;53689;56.878;60.672;2024-03-29T08:25:03;97090.72;;;15.79;27.78
62524;BME280;53689;56.878;60.672;2024-03-29T08:27:29;97079.00;;;15.95;27.06
62524;BME280;53689;56.878;60.672;2024-03-29T08:29:56;97083.38;;;16.25;27.42
62524;BME280;53689;56.878;60.672;2024-03-29T08:32:22;97090.75;;;16.23;27.60
62524;BME280;53689;56.878;60.672;2024-03-29T08:34:50;97095.38;;;16.36;27.00
62524;BME280;53689;56.878;60.672;2024-03-29T08:37:16;97096.47;;;16.42;26.82
62524;BME280;53689;56.878;60.672;2024-03-29T08:39:42;97094.81;;;16.41;26.89
62524;BME280;53689;56.878;60.672;2024-03-29T08:42:11;97100.53;;;16.38;27.62
62524;BME280;53689;56.878;60.672;2024-03-29T08:44:38;97096.91;;;16.45;27.14
62524;BME280;53689;56.878;60.672;2024-03-29T08:47:05;97100.81;;;16.49;26.70
62524;BME280;53689;56.878;60.672;2024-03-29T08:49:31;97101.81;;;17.76;27.18
62524;BME280;53689;56.878;60.672;2024-03-29T08:51:58;97102.28;;;17.02;26.18
62524;BME280;53689;56.878;60.672;2024-03-29T08:54:25;97098.69;;;17.17;26.30
62524;BME280;53689;56.878;60.672;2024-03-29T08:56:52;97105.19;;;17.08;26.23
62524;BME280;53689;56.878;60.672;2024-03-29T08:59:20;97093.91;;;16.84;27.42
62524;BME280;53689;56.878;60.672;2024-03-29T09:01:47;97093.63;;;17.00;28.72
62524;BME280;53689;56.878;60.672;2024-03-29T09:04:14;97103.94;;;17.03;27.46
62524;BME280;53689;56.878;60.672;2024-03-29T09:06:40;97106.88;;;17.15;26.70
62524;BME280;53689;56.878;60.672;2024-03-29T09:09:07;97092.63;;;17.43;28.05
62524;BME280;53689;56.878;60.672;2024-03-29T09:11:34;97093.50;;;16.87;29.12
62524;BME280;53689;56.878;60.672;2024-03-29T09:14:01;97105.56;;;16.76;27.82
62524;BME280;53689;56.878;60.672;2024-03-29T09:16:29;97112.13;;;16.73;28.83
62524;BME280;53689;56.878;60.672;2024-03-29T09:18:56;97106.81;;;16.80;28.59
62524;BME280;53689;56.878;60.672;2024-03-29T09:21:23;97115.81;;;16.72;28.60
62524;BME280;53689;56.878;60.672;2024-03-29T09:23:50;97120.97;;;16.74;28.67
62524;BME280;53689;56.878;60.672;2024-03-29T09:26:16;97109.84;;;16.70;29.17
62524;BME280;53689;56.878;60.672;2024-03-29T09:28:43;97103.22;;;16.66;28.74
62524;BME280;53689;56.878;60.672;2024-03-29T09:31:09;97118.50;;;16.72;28.32
62524;BME280;53689;56.878;60.672;2024-03-29T09:33:38;97122.91;;;16.58;28.89
62524;BME280;53689;56.878;60.672;2024-03-29T09:36:05;97119.22;;;16.59;29.00
62524;BME280;53689;56.878;60.672;2024-03-29T09:38:31;97126.16;;;16.54;29.04
62524;BME280;53689;56.878;60.672;2024-03-29T09:41:11;97110.72;;;16.49;28.48
62524;BME280;53689;56.878;60.672;2024-03-29T09:43:42;97118.78;;;16.56;28.37
62524;BME280;53689;56.878;60.672;2024-03-29T09:46:08;97120.41;;;16.57;28.52
62524;BME280;53689;56.878;60.672;2024-03-29T09:48:38;97132.00;;;16.64;28.78
62524;BME280;53689;56.878;60.672;2024-03-29T09:51:06;97130.97;;;16.65;28.36
62524;BME280;53689;56.878;60.672;2024-03-29T09:53:35;97132.88;;;16.71;28.58
62524;BME280;53689;56.878;60.672;2024-03-29T09:56:03;97136.09;;;16.60;28.71
62524;BME280;53689;56.878;60.672;2024-03-29T09:58:29;97143.09;;;16.61;28.30
62524;BME280;53689;56.878;60.672;2024-03-29T10:00:56;97140.66;;;16.66;27.88
62524;BME280;53689;56.878;60.672;2024-03-29T10:03:24;97138.94;;;16.87;27.62
62524;BME280;53689;56.878;60.672;2024-03-29T10:05:52;97143.47;;;16.86;28.24
62524;BME280;53689;56.878;60.672;2024-03-29T10:08:19;97141.41;;;16.82;28.21
62524;BME280;53689;56.878;60.672;2024-03-29T10:10:46;97138.50;;;16.83;27.87
62524;BME280;53689;56.878;60.672;2024-03-29T10:13:13;97142.47;;;16.87;27.71
62524;BME280;53689;56.878;60.672;2024-03-29T10:15:40;97137.91;;;16.88;27.75
62524;BME280;53689;56.878;60.672;2024-03-29T10:18:09;97145.75;;;16.89;27.99
62524;BME280;53689;56.878;60.672;2024-03-29T10:20:36;97161.00;;;16.89;28.37
62524;BME280;53689;56.878;60.672;2024-03-29T10:23:04;97152.75;;;16.90;28.00
62524;BME280;53689;56.878;60.672;2024-03-29T10:25:32;97149.72;;;16.94;28.08
62524;BME280;53689;56.878;60.672;2024-03-29T10:27:59;97151.25;;;16.81;28.17
62524;BME280;53689;56.878;60.672;2024-03-29T10:30:26;97153.94;;;17.03;27.57
62524;BME280;53689;56.878;60.672;2024-03-29T10:32:52;97152.00;;;16.97;27.68
62524;BME280;53689;56.878;60.672;2024-03-29T10:35:19;97156.63;;;16.88;28.32
62524;BME280;53689;56.878;60.672;2024-03-29T10:37:46;97155.28;;;16.99;28.36
62524;BME280;53689;56.878;60.672;2024-03-29T10:40:14;97164.03;;;17.08;27.75
62524;BME280;53689;56.878;60.672;2024-03-29T10:42:41;97170.16;;;17.01;27.70
62524;BME280;53689;56.878;60.672;2024-03-29T10:45:08;97168.47;;;17.29;27.40
62524;BME280;53689;56.878;60.672;2024-03-29T10:47:36;97174.28;;;17.04;28.18
62524;BME280;53689;56.878;60.672;2024-03-29T10:50:03;97168.50;;;17.00;27.93
62524;BME280;53689;56.878;60.672;2024-03-29T10:52:30;97175.50;;;17.01;28.49
62524;BME280;53689;56.878;60.672;2024-03-29T10:54:57;97174.97;;;16.91;28.47
62524;BME280;53689;56.878;60.672;2024-03-29T10:57:26;97166.97;;;16.91;28.82
62524;BME280;53689;56.878;60.672;2024-03-29T11:00:02;97176.44;;;16.94;28.92
62524;BME280;53689;56.878;60.672;2024-03-29T11:02:35;97175.22;;;16.96;28.59
62524;BME280;53689;56.878;60.672;2024-03-29T11:05:06;97181.41;;;17.25;29.64
62524;BME280;53689;56.878;60.672;2024-03-29T11:07:40;97170.44;;;17.13;28.81
62524;BME280;53689;56.878;60.672;2024-03-29T11:10:11;97184.00;;;17.12;28.77
62524;BME280;53689;56.878;60.672;2024-03-29T11:12:47;97183.56;;;17.08;28.46
62524;BME280;53689;56.878;60.672;2024-03-29T11:15:24;97187.84;;;17.02;28.44
62524;BME280;53689;56.878;60.672;2024-03-29T11:17:54;97189.09;;;17.06;28.22
62524;BME280;53689;56.878;60.672;2024-03-29T11:20:21;97194.53;;;17.13;28.03
62524;BME280;53689;56.878;60.672;2024-03-29T11:22:49;97199.03;;;17.13;28.29
62524;BME280;53689;56.878;60.672;2024-03-29T11:25:15;97196.06;;;16.79;27.99
62524;BME280;53689;56.878;60.672;2024-03-29T11:27:43;97200.59;;;16.57;27.50
62524;BME280;53689;56.878;60.672;2024-03-29T11:30:10;97197.97;;;16.85;28.48
62524;BME280;53689;56.878;60.672;2024-03-29T11:32:39;97205.94;;;17.00;27.91
62524;BME280;53689;56.878;60.672;2024-03-29T11:35:13;97203.59;;;16.97;28.30
62524;BME280;53689;56.878;60.672;2024-03-29T11:37:39;97209.50;;;17.08;27.82
62524;BME280;53689;56.878;60.672;2024-03-29T11:40:10;97216.63;;;17.57;26.89
62524;BME280;53689;56.878;60.672;2024-03-29T11:42:43;97220.38;;;17.70;27.52
62524;BME280;53689;56.878;60.672;2024-03-29T11:45:11;97206.28;;;17.54;27.92
62524;BME280;53689;56.878;60.672;2024-03-29T11:47:39;97210.53;;;17.42;27.72
62524;BME280;53689;56.878;60.672;2024-03-29T11:50:07;97212.75;;;17.31;28.46
62524;BME280;53689;56.878;60.672;2024-03-29T11:52:34;97204.50;;;17.26;28.35
62524;BME280;53689;56.878;60.672;2024-03-29T11:55:01;97205.69;;;17.24;28.50
62524;BME280;53689;56.878;60.672;2024-03-29T11:57:29;97204.06;;;17.01;28.12
62524;BME280;53689;56.878;60.672;2024-03-29T11:59:55;97208.41;;;17.02;28.41
62524;BME280;53689;56.878;60.672;2024-03-29T12:02:23;97212.41;;;17.13;27.46
62524;BME280;53689;56.878;60.672;2024-03-29T12:04:50;97218.81;;;17.18;28.65
62524;BME280;53689;56.878;60.672;2024-03-29T12:07:17;97216.16;;;17.18;28.10
62524;BME280;53689;56.878;60.672;2024-03-29T12:09:44;97214.34;;;17.26;28.35
62524;BME280;53689;56.878;60.672;2024-03-29T12:12:11;97225.91;;;17.26;28.32
62524;BME280;53689;56.878;60.672;2024-03-29T12:14:38;97228.78;;;17.31;28.65
62524;BME280;53689;56.878;60.672;2024-03-29T12:17:09;97221.59;;;17.32;28.00
62524;BME280;53689;56.878;60.672;2024-03-29T12:19:37;97227.16;;;17.30;28.49
62524;BME280;53689;56.878;60.672;2024-03-29T12:22:05;97219.75;;;17.32;28.76
62524;BME280;53689;56.878;60.672;2024-03-29T12:24:31;97222.06;;;17.78;27.51
62524;BME280;53689;56.878;60.672;2024-03-29T12:26:59;97226.13;;;17.67;28.03
62524;BME280;53689;56.878;60.672;2024-03-29T12:29:26;97223.50;;;18.15;27.78
62524;BME280;53689;56.878;60.672;2024-03-29T12:31:58;97230.34;;;17.47;28.42
62524;BME280;53689;56.878;60.672;2024-03-29T12:34:25;97229.09;;;17.43;28.20
62524;BME280;53689;56.878;60.672;2024-03-29T12:36:53;97240.38;;;17.39;28.02
62524;BME280;53689;56.878;60.672;2024-03-29T12:39:19;97232.34;;;17.39;27.81
62524;BME280;53689;56.878;60.672;2024-03-29T12:41:46;97235.78;;;17.32;28.25
62524;BME280;53689;56.878;60.672;2024-03-29T12:44:13;97237.44;;;17.33;28.11
62524;BME280;53689;56.878;60.672;2024-03-29T12:46:40;97234.97;;;17.32;28.03
62524;BME280;53689;56.878;60.672;2024-03-29T12:49:07;97240.13;;;17.33;27.80
62524;BME280;53689;56.878;60.672;2024-03-29T12:51:37;97222.38;;;17.26;28.60